Time;durP1;ratioP1;P1;durP2;ratioP2;P2;SDS_P1;SDS_P2;PMS_P1;PMS_P2;Temp;Humidity;BMP_temperature;BMP_pressure;BME280_temperature;BME280_humidity;BME280_pressure;Samples;Min_cycle;Max_cycle;Signal;HPM_P1;HPM_P2
2020/12/28 00:00:28;;;;;;;30.55;18.08;;;;;;;6.86;83.63;99294.91;5115419;28;20092;-76
2020/12/28 00:02:54;;;;;;;24.85;16.85;;;;;;;6.90;83.48;99288.31;5097157;28;20028;-77
2020/12/28 00:05:21;;;;;;;26.38;16.20;;;;;;;6.88;81.79;99281.53;5114422;28;20027;-77
2020/12/28 00:07:48;;;;;;;22.92;15.43;;;;;;;6.81;81.61;99277.41;5115533;28;20027;-77
2020/12/28 00:10:17;;;;;;;27.73;16.42;;;;;;;6.90;80.52;99287.50;5114896;28;20031;-77
2020/12/28 00:12:49;;;;;;;23.25;12.88;;;;;;;6.92;80.02;99276.88;5114239;28;20093;-78
2020/12/28 00:15:17;;;;;;;19.05;12.38;;;;;;;6.78;79.53;99256.03;5114777;28;20022;-76
2020/12/28 00:17:44;;;;;;;29.00;18.83;;;;;;;6.86;79.75;99275.53;5097686;28;20027;-75
2020/12/28 00:20:10;;;;;;;21.65;15.10;;;;;;;6.87;79.78;99269.69;5115212;28;20022;-75
2020/12/28 00:22:35;;;;;;;28.27;18.80;;;;;;;6.88;80.68;99282.34;5097001;28;20031;-76
2020/12/28 00:25:01;;;;;;;20.80;13.73;;;;;;;6.74;81.36;99277.25;5096683;28;20390;-75
2020/12/28 00:27:26;;;;;;;24.52;17.98;;;;;;;6.73;81.87;99264.59;5113589;28;20114;-75
2020/12/28 00:29:52;;;;;;;22.17;17.30;;;;;;;6.87;81.39;99280.75;5113284;28;20106;-76
2020/12/28 00:32:17;;;;;;;29.13;20.75;;;;;;;6.77;81.09;99282.09;5115080;28;20153;-75
2020/12/28 00:34:43;;;;;;;28.52;17.75;;;;;;;6.43;81.52;99230.31;5114963;28;20027;-77
2020/12/28 00:37:08;;;;;;;29.50;18.15;;;;;;;6.58;81.66;99262.66;5096461;28;20093;-74
2020/12/28 00:39:34;;;;;;;29.73;20.38;;;;;;;6.76;81.83;99282.44;5114672;28;20042;-74
2020/12/28 00:41:59;;;;;;;24.95;16.48;;;;;;;6.66;81.96;99281.03;5096433;28;20027;-75
2020/12/28 00:44:25;;;;;;;26.75;18.08;;;;;;;6.64;83.10;99283.34;5114357;28;20081;-74
2020/12/28 00:46:50;;;;;;;27.45;17.98;;;;;;;6.57;83.18;99277.66;5114351;28;20051;-76
2020/12/28 00:49:16;;;;;;;24.10;17.98;;;;;;;6.60;83.35;99262.31;5114502;28;20073;-76
2020/12/28 00:51:41;;;;;;;37.85;21.60;;;;;;;6.71;83.52;99272.47;5113202;28;20028;-75
2020/12/28 00:54:07;;;;;;;29.13;17.20;;;;;;;6.67;83.09;99260.53;5114260;28;20048;-74
2020/12/28 00:56:32;;;;;;;23.98;17.83;;;;;;;6.69;83.49;99258.19;5112884;28;20111;-75
2020/12/28 00:59:00;;;;;;;26.63;17.33;;;;;;;6.66;83.31;99261.69;5096548;28;20031;-75
2020/12/28 01:01:26;;;;;;;23.65;16.17;;;;;;;6.62;84.24;99252.50;5096074;28;20031;-75
2020/12/28 01:03:51;;;;;;;21.77;16.10;;;;;;;6.67;83.63;99249.47;5113058;28;20020;-74
2020/12/28 01:06:17;;;;;;;21.67;16.20;;;;;;;6.63;83.39;99243.03;5096969;28;20036;-77
2020/12/28 01:08:42;;;;;;;24.30;16.33;;;;;;;6.62;83.32;99237.88;5113263;28;20027;-76
2020/12/28 01:11:08;;;;;;;17.17;14.00;;;;;;;6.64;83.29;99239.13;5112966;28;20024;-75
2020/12/28 01:13:33;;;;;;;20.13;15.80;;;;;;;6.66;83.48;99242.34;5096593;28;20035;-78
2020/12/28 01:15:59;;;;;;;17.25;14.35;;;;;;;6.69;82.59;99227.78;5114221;28;20374;-76
2020/12/28 01:18:24;;;;;;;23.45;15.25;;;;;;;6.82;82.73;99234.81;5096296;28;20521;-76
2020/12/28 01:20:52;;;;;;;22.52;14.45;;;;;;;6.79;82.80;99230.00;5095922;28;20547;-76
2020/12/28 01:23:18;;;;;;;19.00;14.57;;;;;;;6.76;83.36;99230.69;5095941;28;20028;-75
2020/12/28 01:25:43;;;;;;;22.02;14.88;;;;;;;6.78;83.49;99224.84;5112796;28;20037;-76
2020/12/28 01:28:09;;;;;;;18.80;14.70;;;;;;;6.87;83.32;99230.13;5095894;28;20034;-77
2020/12/28 01:30:34;;;;;;;18.95;13.20;;;;;;;6.83;81.81;99228.13;5112776;28;20062;-75
2020/12/28 01:33:01;;;;;;;14.00;10.57;;;;;;;6.80;81.71;99239.88;5113361;28;20023;-76
2020/12/28 01:35:28;;;;;;;15.25;11.20;;;;;;;6.74;81.68;99216.44;5096199;28;20046;-77
2020/12/28 01:37:54;;;;;;;15.48;10.30;;;;;;;6.79;82.53;99229.19;5114317;28;20031;-77
2020/12/28 01:40:19;;;;;;;17.98;10.80;;;;;;;6.90;82.29;99246.03;5095855;28;20111;-76
2020/12/28 01:42:45;;;;;;;16.13;10.18;;;;;;;6.89;82.76;99244.41;5095676;28;20028;-77
2020/12/28 01:45:10;;;;;;;13.20;9.68;;;;;;;6.86;82.65;99245.94;5096129;28;20024;-76
2020/12/28 01:47:38;;;;;;;14.63;9.55;;;;;;;6.97;82.61;99257.22;5096074;28;20351;-76
2020/12/28 01:50:04;;;;;;;15.38;9.45;;;;;;;6.96;82.00;99261.16;5113991;28;20031;-76
2020/12/28 01:52:30;;;;;;;13.57;9.75;;;;;;;7.05;81.88;99278.38;5095619;28;20028;-76
2020/12/28 01:54:57;;;;;;;11.05;8.57;;;;;;;7.08;82.06;99270.16;5095002;28;20130;-76
2020/12/28 01:57:23;;;;;;;11.88;7.65;;;;;;;7.04;81.93;99258.22;5096183;28;20027;-76
2020/12/28 01:59:48;;;;;;;10.15;7.45;;;;;;;7.07;82.03;99262.19;5112861;28;20050;-77
2020/12/28 02:02:18;;;;;;;8.68;6.45;;;;;;;7.04;81.90;99268.47;5096204;28;20475;-75
2020/12/28 02:04:44;;;;;;;8.73;6.82;;;;;;;7.26;81.52;99273.31;5095880;28;20095;-76
2020/12/28 02:07:12;;;;;;;11.15;7.20;;;;;;;7.13;81.39;99260.75;5096353;28;20110;-77
2020/12/28 02:09:44;;;;;;;9.95;6.03;;;;;;;7.04;81.71;99252.69;5098207;28;20039;-76
2020/12/28 02:12:09;;;;;;;15.63;6.70;;;;;;;7.14;81.06;99251.31;5099897;28;20032;-77
2020/12/28 02:14:35;;;;;;;6.68;4.50;;;;;;;7.13;80.27;99244.16;5099509;28;20043;-75
2020/12/28 02:17:00;;;;;;;6.47;4.80;;;;;;;7.13;80.86;99254.41;5099784;28;20154;-77
2020/12/28 02:19:27;;;;;;;4.72;4.22;;;;;;;7.13;81.36;99243.34;5117241;28;20023;-76
2020/12/28 02:21:55;;;;;;;6.25;3.95;;;;;;;7.16;81.94;99246.22;5099141;28;20027;-76
2020/12/28 02:24:21;;;;;;;3.72;2.75;;;;;;;7.28;83.25;99235.00;5117352;28;20461;-77
2020/12/28 02:26:46;;;;;;;3.72;2.20;;;;;;;7.44;84.94;99220.28;5098983;28;20035;-77
2020/12/28 02:29:12;;;;;;;2.42;2.00;;;;;;;7.34;85.46;99205.06;5098880;28;20032;-76
2020/12/28 02:31:37;;;;;;;1.92;1.77;;;;;;;7.37;85.84;99209.09;5099453;28;20027;-77
2020/12/28 02:34:03;;;;;;;2.45;1.95;;;;;;;7.46;86.69;99209.66;5115934;28;20039;-75
2020/12/28 02:36:29;;;;;;;3.15;1.45;;;;;;;7.45;87.08;99210.81;5099211;28;20027;-77
2020/12/28 02:38:54;;;;;;;3.72;1.27;;;;;;;7.34;87.13;99200.31;5099339;28;20036;-75
2020/12/28 02:41:20;;;;;;;3.25;2.25;;;;;;;7.39;86.89;99201.19;5099220;28;20423;-75
2020/12/28 02:43:45;;;;;;;3.40;2.50;;;;;;;7.32;87.01;99191.59;5115954;28;20149;-76
2020/12/28 02:46:11;;;;;;;3.47;1.80;;;;;;;7.30;87.08;99198.69;5098658;28;20102;-75
2020/12/28 02:48:36;;;;;;;5.10;1.77;;;;;;;7.38;86.34;99199.59;5098666;28;20118;-75
2020/12/28 02:51:02;;;;;;;6.72;2.85;;;;;;;7.26;85.78;99201.38;5099179;28;20108;-76
2020/12/28 02:53:27;;;;;;;5.05;3.17;;;;;;;7.15;86.23;99189.28;5098455;28;20405;-76
2020/12/28 02:55:53;;;;;;;5.80;2.75;;;;;;;7.14;86.72;99187.69;5115451;28;20035;-77
2020/12/28 02:58:18;;;;;;;3.17;2.28;;;;;;;7.11;87.24;99184.84;5098667;28;20024;-75
2020/12/28 03:00:43;;;;;;;6.20;2.90;;;;;;;7.07;87.19;99191.09;5098322;28;20481;-76
2020/12/28 03:03:09;;;;;;;7.50;3.90;;;;;;;7.04;87.68;99188.25;5098373;28;20027;-75
2020/12/28 03:05:35;;;;;;;5.53;3.45;;;;;;;7.06;87.20;99183.94;5098314;28;20060;-76
2020/12/28 03:08:00;;;;;;;9.40;4.70;;;;;;;6.98;87.85;99184.19;5116126;28;20035;-76
2020/12/28 03:10:26;;;;;;;9.40;5.28;;;;;;;6.99;87.73;99183.03;5098487;28;20020;-76
2020/12/28 03:12:51;;;;;;;8.65;6.45;;;;;;;6.90;87.43;99174.13;5116398;28;20462;-76
2020/12/28 03:15:17;;;;;;;11.15;6.85;;;;;;;7.06;85.91;99169.31;5116280;28;20030;-77
2020/12/28 03:17:42;;;;;;;6.97;5.93;;;;;;;6.92;86.34;99160.72;5098070;28;20040;-75
2020/12/28 03:20:08;;;;;;;8.60;5.30;;;;;;;6.83;86.80;99159.00;5098108;28;20024;-76
2020/12/28 03:22:33;;;;;;;6.88;5.13;;;;;;;6.86;86.38;99157.44;5098731;28;20399;-75
2020/12/28 03:25:01;;;;;;;5.47;4.40;;;;;;;6.78;86.76;99156.50;5116174;28;20031;-75
2020/12/28 03:27:27;;;;;;;8.52;4.68;;;;;;;6.89;86.66;99167.00;5097513;28;20027;-76
2020/12/28 03:29:52;;;;;;;10.52;5.32;;;;;;;6.93;86.45;99167.88;5097800;28;20031;-76
2020/12/28 03:32:18;;;;;;;8.25;5.30;;;;;;;6.86;85.82;99159.41;5097857;28;20056;-77
2020/12/28 03:34:43;;;;;;;11.27;6.03;;;;;;;6.82;86.40;99176.75;5097676;28;20027;-76
2020/12/28 03:37:09;;;;;;;8.15;5.07;;;;;;;6.80;86.10;99165.22;5097647;28;20024;-76
2020/12/28 03:39:34;;;;;;;6.25;5.03;;;;;;;6.80;86.92;99159.69;5098157;28;20042;-76
2020/12/28 03:42:00;;;;;;;6.50;5.47;;;;;;;6.77;87.00;99152.16;5097286;28;20027;-77
2020/12/28 03:44:25;;;;;;;5.25;4.50;;;;;;;6.81;84.77;99128.13;5114483;28;20119;-77
2020/12/28 03:46:51;;;;;;;6.70;4.07;;;;;;;7.00;83.94;99151.44;5114775;28;20035;-75
2020/12/28 03:49:17;;;;;;;13.80;3.35;;;;;;;6.93;83.17;99146.56;5114715;28;20119;-75
2020/12/28 03:51:42;;;;;;;4.95;3.25;;;;;;;6.91;83.69;99146.09;5097694;28;20441;-76
2020/12/28 03:54:08;;;;;;;5.68;3.50;;;;;;;6.85;83.64;99119.09;5096959;28;20043;-77
2020/12/28 03:56:35;;;;;;;8.27;4.00;;;;;;;7.00;84.29;99138.41;5097160;28;20062;-77
2020/12/28 03:59:01;;;;;;;10.32;3.95;;;;;;;6.96;84.71;99140.28;5114766;28;20049;-75
2020/12/28 04:01:26;;;;;;;7.28;4.30;;;;;;;7.05;85.27;99137.31;5114465;28;20055;-75
2020/12/28 04:03:53;;;;;;;8.18;4.75;;;;;;;7.00;85.33;99130.09;5115414;28;20034;-77
2020/12/28 04:06:19;;;;;;;5.55;4.43;;;;;;;6.93;85.58;99118.91;5097160;28;20028;-75
2020/12/28 04:08:45;;;;;;;6.47;4.28;;;;;;;6.76;85.88;99080.59;5097054;28;20035;-77
2020/12/28 04:11:10;;;;;;;6.57;5.38;;;;;;;7.00;86.17;99129.31;5113962;28;20039;-77
2020/12/28 04:13:36;;;;;;;7.00;6.30;;;;;;;7.00;86.51;99130.09;5115249;28;20043;-76
2020/12/28 04:16:01;;;;;;;10.30;5.85;;;;;;;7.00;86.59;99137.59;5114849;28;20026;-76
2020/12/28 04:18:27;;;;;;;9.38;6.60;;;;;;;6.96;87.08;99125.66;5096861;28;20050;-76
2020/12/28 04:20:52;;;;;;;8.98;6.15;;;;;;;6.72;86.54;99077.78;5097198;28;20108;-76
2020/12/28 04:23:18;;;;;;;9.55;5.78;;;;;;;6.93;87.02;99107.03;5097794;28;20065;-76
2020/12/28 04:25:43;;;;;;;5.25;4.75;;;;;;;6.83;86.34;99103.69;5097075;28;20031;-75
2020/12/28 04:28:09;;;;;;;7.53;6.22;;;;;;;6.68;86.50;99090.72;5115284;28;20031;-77
2020/12/28 04:30:34;;;;;;;7.07;6.07;;;;;;;6.91;86.70;99115.69;5097043;28;20045;-78
2020/12/28 04:33:00;;;;;;;5.50;4.82;;;;;;;6.92;86.32;99119.25;5096634;28;20122;-77
2020/12/28 04:35:25;;;;;;;13.35;7.85;;;;;;;6.91;86.46;99110.16;5096556;28;20024;-77
2020/12/28 04:37:51;;;;;;;9.40;7.53;;;;;;;6.95;86.58;99121.28;5096556;28;20062;-77
2020/12/28 04:40:17;;;;;;;8.20;5.72;;;;;;;6.96;86.53;99125.66;5096566;28;20027;-75
2020/12/28 04:42:43;;;;;;;4.45;3.60;;;;;;;6.92;86.13;99110.94;5097028;28;20034;-76
2020/12/28 04:45:10;;;;;;;6.13;3.42;;;;;;;6.89;84.97;99070.22;5096751;28;20024;-75
2020/12/28 04:47:36;;;;;;;9.20;3.65;;;;;;;7.00;83.96;99058.19;5096668;28;20027;-75
2020/12/28 04:50:03;;;;;;;5.28;2.78;;;;;;;7.02;82.95;99077.19;5113308;28;20020;-75
2020/12/28 04:52:29;;;;;;;5.45;3.15;;;;;;;7.09;83.59;99088.41;5115047;28;20458;-78
2020/12/28 04:54:55;;;;;;;10.20;2.50;;;;;;;7.00;83.14;99091.38;5092216;28;20063;-75
2020/12/28 04:57:20;;;;;;;3.03;2.15;;;;;;;7.04;82.02;99102.53;5093227;28;20024;-76
2020/12/28 04:59:46;;;;;;;3.85;2.50;;;;;;;7.08;82.52;99103.38;5093234;28;20367;-76
2020/12/28 05:02:11;;;;;;;4.88;2.78;;;;;;;7.18;82.07;99091.72;5092902;28;20038;-75
2020/12/28 05:04:37;;;;;;;6.75;3.03;;;;;;;7.14;82.81;99096.41;5092912;28;20028;-75
2020/12/28 05:07:05;;;;;;;5.63;3.83;;;;;;;7.14;83.19;99113.00;5093314;28;20082;-75
2020/12/28 05:09:31;;;;;;;4.65;3.13;;;;;;;7.09;83.39;99105.00;5092996;28;20035;-75
2020/12/28 05:12:02;;;;;;;8.57;3.20;;;;;;;7.18;83.68;99113.84;5093229;28;20077;-75
2020/12/28 05:14:28;;;;;;;4.43;3.00;;;;;;;7.14;83.85;99103.88;5094172;28;20027;-76
2020/12/28 05:17:02;;;;;;;3.95;2.47;;;;;;;7.14;83.39;99096.41;5094228;28;20028;-76
2020/12/28 05:19:28;;;;;;;5.47;2.70;;;;;;;7.12;83.50;99107.00;5109754;28;20028;-77
2020/12/28 05:21:55;;;;;;;4.45;2.35;;;;;;;7.13;84.25;99116.91;5093266;28;20036;-75
2020/12/28 05:24:20;;;;;;;4.07;2.78;;;;;;;7.13;84.20;99105.84;5092517;28;20028;-75
2020/12/28 05:26:47;;;;;;;2.75;2.20;;;;;;;6.88;83.88;99054.78;5093824;28;20161;-76
2020/12/28 05:29:18;;;;;;;2.50;1.98;;;;;;;7.20;84.59;99085.84;5092744;28;20055;-76
2020/12/28 05:31:46;;;;;;;2.83;2.13;;;;;;;7.26;84.35;99082.38;5093285;28;20047;-76
2020/12/28 05:34:23;;;;;;;5.22;2.35;;;;;;;7.26;84.35;99065.00;5092407;28;20024;-75
2020/12/28 05:36:57;;;;;;;5.40;2.00;;;;;;;7.32;84.29;99067.06;5094008;28;20115;-75
2020/12/28 05:39:26;;;;;;;6.80;2.00;;;;;;;7.34;84.67;99055.63;5092996;28;20416;-76
2020/12/28 05:42:14;;;;;;;3.58;1.88;;;;;;;7.49;84.27;99053.91;5093958;28;20024;-76
2020/12/28 05:44:40;;;;;;;6.30;1.40;;;;;;;7.76;83.03;99044.47;5095195;28;20028;-75
2020/12/28 05:47:06;;;;;;;3.45;1.40;;;;;;;7.98;82.54;99050.34;5096328;28;20048;-75
2020/12/28 05:49:37;;;;;;;4.22;1.20;;;;;;;8.23;80.60;99048.75;5097157;28;20067;-76
2020/12/28 05:52:06;;;;;;;6.13;1.20;;;;;;;8.32;80.37;99054.03;5097652;28;20058;-75
2020/12/28 05:54:33;;;;;;;2.15;1.30;;;;;;;8.30;80.61;99056.34;5113261;28;20079;-76
2020/12/28 05:56:58;;;;;;;5.20;1.80;;;;;;;8.29;79.66;99055.56;5100179;28;20092;-76
2020/12/28 05:59:24;;;;;;;2.58;1.52;;;;;;;8.36;79.01;99058.47;5116878;28;20127;-76
2020/12/28 06:01:50;;;;;;;5.45;1.65;;;;;;;8.34;78.84;99046.13;5117806;28;20023;-76
2020/12/28 06:04:17;;;;;;;2.03;1.10;;;;;;;8.57;76.51;99041.28;5099760;28;20474;-77
2020/12/28 06:06:44;;;;;;;3.17;1.00;;;;;;;8.68;75.84;99030.34;5099718;28;20024;-75
2020/12/28 06:09:10;;;;;;;3.83;1.17;;;;;;;8.74;74.39;99028.84;5099621;28;20534;-77
2020/12/28 06:11:37;;;;;;;8.15;1.90;;;;;;;8.85;73.00;99032.53;5099605;28;20024;-75
2020/12/28 06:14:13;;;;;;;13.65;1.42;;;;;;;8.98;71.00;99040.59;5117814;28;20117;-76
2020/12/28 06:16:38;;;;;;;5.35;0.98;;;;;;;9.09;67.23;99042.28;5099089;28;20027;-75
2020/12/28 06:19:04;;;;;;;3.55;1.15;;;;;;;9.14;66.02;99024.50;5099419;28;20027;-76
2020/12/28 06:21:37;;;;;;;3.40;1.08;;;;;;;9.18;65.01;99028.91;5099098;28;20140;-76
2020/12/28 06:24:03;;;;;;;5.63;1.10;;;;;;;9.16;63.90;99019.34;5098985;28;20034;-76
2020/12/28 06:26:28;;;;;;;6.78;1.63;;;;;;;8.93;64.23;98998.13;5116953;28;20258;-75
2020/12/28 06:29:07;;;;;;;6.15;1.02;;;;;;;9.05;64.82;99010.13;5098862;28;20100;-76
2020/12/28 06:31:33;;;;;;;2.92;1.38;;;;;;;9.05;65.27;99007.34;5098961;28;20079;-76
2020/12/28 06:33:59;;;;;;;3.60;1.27;;;;;;;9.16;64.98;99020.19;5116919;28;20024;-76
2020/12/28 06:36:25;;;;;;;2.50;1.00;;;;;;;9.02;66.14;99020.03;5115752;28;20095;-77
2020/12/28 06:38:58;;;;;;;4.05;1.35;;;;;;;9.07;66.13;99008.59;5098761;28;20115;-77
2020/12/28 06:41:25;;;;;;;4.78;1.40;;;;;;;8.95;67.11;99010.81;5099544;28;20056;-76
2020/12/28 06:43:54;;;;;;;5.25;1.55;;;;;;;9.03;67.61;99006.94;5116950;28;20427;-76
2020/12/28 06:46:23;;;;;;;3.92;1.38;;;;;;;8.98;68.35;99007.28;5099136;28;20123;-76
2020/12/28 06:48:49;;;;;;;4.03;1.65;;;;;;;8.90;68.32;98993.34;5098933;28;20019;-76
2020/12/28 06:51:15;;;;;;;1.40;1.30;;;;;;;8.95;68.70;98983.06;5098851;28;20527;-77
2020/12/28 06:53:41;;;;;;;6.07;1.35;;;;;;;9.07;68.04;98980.03;5098131;28;20059;-76
2020/12/28 06:56:10;;;;;;;5.45;1.58;;;;;;;9.13;67.86;98982.09;5114972;28;20032;-76
2020/12/28 06:58:38;;;;;;;5.75;1.88;;;;;;;9.16;67.52;98967.47;5098356;28;20580;-75
2020/12/28 07:01:06;;;;;;;6.88;2.85;;;;;;;9.31;65.96;98960.03;5098360;28;20027;-76
2020/12/28 07:03:33;;;;;;;9.73;3.97;;;;;;;9.30;65.45;98950.09;5098216;28;20031;-76
2020/12/28 07:06:03;;;;;;;8.95;5.22;;;;;;;9.28;65.77;98941.38;5098232;28;20034;-75
2020/12/28 07:08:29;;;;;;;5.57;2.13;;;;;;;9.43;65.78;98950.63;5116212;28;20077;-78
2020/12/28 07:11:04;;;;;;;10.18;2.25;;;;;;;9.39;66.36;98950.59;5098682;28;20059;-75
2020/12/28 07:13:33;;;;;;;6.20;1.80;;;;;;;9.41;66.00;98937.09;5116323;28;20492;-75
2020/12/28 07:16:08;;;;;;;5.70;1.60;;;;;;;9.35;65.95;98926.75;5116691;28;20023;-75
2020/12/28 07:18:34;;;;;;;6.82;1.88;;;;;;;9.43;65.76;98940.31;5098006;28;20039;-76
2020/12/28 07:21:01;;;;;;;11.32;1.88;;;;;;;9.45;65.71;98937.94;5114967;28;20020;-76
2020/12/28 07:23:28;;;;;;;7.32;2.13;;;;;;;9.57;65.76;98950.72;5098505;28;20035;-77
2020/12/28 07:26:10;;;;;;;6.40;2.05;;;;;;;10.53;63.66;98938.53;5116208;28;20042;-75
2020/12/28 07:28:40;;;;;;;4.05;1.80;;;;;;;11.00;60.02;98934.66;5097956;28;20469;-76
2020/12/28 07:31:09;;;;;;;11.43;2.05;;;;;;;11.89;57.09;98917.91;5097774;28;20054;-77
2020/12/28 07:33:48;;;;;;;7.57;2.00;;;;;;;12.69;53.78;98925.53;5115745;28;20023;-77
2020/12/28 07:36:20;;;;;;;10.48;2.20;;;;;;;13.09;54.03;98951.19;5098161;28;20027;-76
2020/12/28 07:38:48;;;;;;;5.28;2.22;;;;;;;12.08;55.28;98952.88;5115664;28;20031;-76
2020/12/28 07:41:17;;;;;;;5.90;1.58;;;;;;;11.65;57.35;98935.44;5097585;28;20115;-76
2020/12/28 07:43:59;;;;;;;8.23;2.38;;;;;;;11.31;59.15;98949.00;5097307;28;20055;-75
2020/12/28 07:47:06;;;;;;;9.90;1.77;;;;;;;11.01;60.10;98956.50;5098061;28;20081;-75
2020/12/28 07:49:41;;;;;;;5.60;1.52;;;;;;;10.83;60.81;98961.25;5112140;28;20039;-75
2020/12/28 07:52:27;;;;;;;3.70;2.53;;;;;;;10.80;60.19;98964.03;5097052;28;20123;-76
2020/12/28 07:55:16;;;;;;;10.38;2.58;;;;;;;10.70;60.52;98960.03;5113337;28;20054;-76
2020/12/28 07:57:41;;;;;;;6.97;2.33;;;;;;;10.63;60.92;98957.22;5096277;28;20059;-77
2020/12/28 08:00:13;;;;;;;14.02;2.05;;;;;;;10.55;61.38;98942.53;5115806;28;20415;-75
2020/12/28 08:03:09;;;;;;;4.28;2.13;;;;;;;10.42;62.21;98919.03;5114082;28;20024;-74
2020/12/28 08:05:35;;;;;;;11.70;1.73;;;;;;;10.44;64.29;98936.13;5115254;28;20120;-74
2020/12/28 08:08:04;;;;;;;3.33;2.20;;;;;;;10.52;65.41;98925.81;5097241;28;20065;-74
2020/12/28 08:10:29;;;;;;;3.92;1.50;;;;;;;10.48;66.41;98937.72;5115329;28;20057;-75
2020/12/28 08:13:00;;;;;;;5.47;1.52;;;;;;;10.44;65.72;98931.38;5113405;28;20035;-75
2020/12/28 08:15:31;;;;;;;9.93;1.90;;;;;;;10.41;66.79;98937.69;5096761;28;20454;-74
2020/12/28 08:18:10;;;;;;;7.00;2.75;;;;;;;10.37;67.90;98948.00;5114540;28;20023;-76
2020/12/28 08:20:39;;;;;;;7.28;2.35;;;;;;;10.34;69.39;98940.47;5097883;28;20058;-75
2020/12/28 08:23:07;;;;;;;4.80;1.90;;;;;;;10.23;71.01;98932.06;5096572;28;20092;-75
2020/12/28 08:25:33;;;;;;;10.35;1.98;;;;;;;10.20;71.66;98909.78;5096888;28;20032;-76
2020/12/28 08:28:01;;;;;;;7.25;3.15;;;;;;;10.30;71.78;98888.81;5096817;28;20378;-74
2020/12/28 08:30:28;;;;;;;6.03;1.70;;;;;;;10.37;70.13;98886.03;5114520;28;20023;-75
2020/12/28 08:32:56;;;;;;;8.50;2.63;;;;;;;10.42;69.94;98885.66;5096493;28;20035;-76
2020/12/28 08:35:22;;;;;;;5.05;1.75;;;;;;;10.40;69.93;98880.50;5096719;28;20031;-76
2020/12/28 08:37:51;;;;;;;4.43;2.03;;;;;;;10.35;69.85;98883.66;5113726;28;20496;-77
2020/12/28 08:40:19;;;;;;;8.90;2.60;;;;;;;10.32;70.50;98883.63;5096387;28;20469;-76
2020/12/28 08:42:44;;;;;;;8.77;3.60;;;;;;;10.24;71.25;98888.41;5096630;28;20040;-76
2020/12/28 08:45:36;;;;;;;7.78;3.70;;;;;;;10.25;71.62;98884.41;5096814;28;20036;-76
2020/12/28 08:48:04;;;;;;;4.95;2.85;;;;;;;10.08;74.06;98858.13;5109309;28;20040;-75
2020/12/28 08:50:35;;;;;;;9.77;2.60;;;;;;;10.31;73.99;98855.03;5096810;28;20122;-75
2020/12/28 08:53:00;;;;;;;8.93;4.10;;;;;;;10.58;73.48;98852.72;5096737;28;20020;-75
2020/12/28 08:55:26;;;;;;;13.65;5.35;;;;;;;11.34;70.50;98853.50;5096594;28;20376;-76
2020/12/28 08:57:58;;;;;;;11.27;4.22;;;;;;;10.98;71.73;98848.00;5113970;28;20028;-76
2020/12/28 09:00:27;;;;;;;8.35;4.10;;;;;;;10.88;72.73;98838.44;5114780;28;20035;-75
2020/12/28 09:02:59;;;;;;;7.55;3.53;;;;;;;10.79;72.69;98843.59;5096700;28;20031;-75
2020/12/28 09:05:29;;;;;;;8.35;3.35;;;;;;;10.70;73.12;98838.41;5096510;28;20035;-76
2020/12/28 09:07:58;;;;;;;5.93;2.72;;;;;;;10.71;72.98;98856.72;5114499;28;20035;-76
2020/12/28 09:10:23;;;;;;;5.65;1.60;;;;;;;10.64;74.12;98853.13;5095951;28;20036;-75
2020/12/28 09:12:54;;;;;;;8.98;2.05;;;;;;;10.62;76.11;98847.16;5097055;28;20058;-76
2020/12/28 09:15:22;;;;;;;17.23;4.45;;;;;;;10.65;76.51;98857.50;5095970;28;20019;-75
2020/12/28 09:17:50;;;;;;;10.60;3.47;;;;;;;10.54;76.30;98856.69;5096050;28;20036;-75
2020/12/28 09:20:15;;;;;;;4.05;2.03;;;;;;;10.72;72.51;98838.03;5095997;28;20114;-75
2020/12/28 09:22:42;;;;;;;7.20;2.38;;;;;;;10.80;72.53;98858.31;5095500;28;20504;-74
2020/12/28 09:25:07;;;;;;;9.75;2.10;;;;;;;10.84;71.40;98847.97;5113020;28;20031;-76
2020/12/28 09:27:35;;;;;;;7.43;1.98;;;;;;;11.04;69.90;98845.59;5095775;28;20425;-76
2020/12/28 09:30:07;;;;;;;5.63;1.70;;;;;;;11.11;69.04;98851.16;5095734;28;20127;-75
2020/12/28 09:32:33;;;;;;;14.15;1.75;;;;;;;11.20;69.31;98851.56;5113911;28;20130;-75
2020/12/28 09:34:59;;;;;;;9.10;2.80;;;;;;;11.25;69.13;98834.44;5095418;28;20024;-74
2020/12/28 09:37:24;;;;;;;6.35;1.80;;;;;;;11.29;69.89;98840.78;5095598;28;20123;-75
2020/12/28 09:39:50;;;;;;;8.20;2.20;;;;;;;11.31;67.59;98841.19;5095830;28;20035;-75
2020/12/28 09:42:15;;;;;;;4.10;2.58;;;;;;;11.36;66.36;98843.56;5112477;28;20523;-75
2020/12/28 09:44:41;;;;;;;8.20;2.53;;;;;;;11.39;64.19;98834.41;5113558;28;20028;-74
2020/12/28 09:47:06;;;;;;;15.38;2.13;;;;;;;11.46;64.27;98828.84;5095519;28;20080;-74
2020/12/28 09:49:32;;;;;;;10.82;2.60;;;;;;;11.52;64.98;98834.78;5095567;28;20020;-75
2020/12/28 09:51:58;;;;;;;6.30;2.47;;;;;;;11.52;65.48;98821.66;5114012;28;20060;-75
2020/12/28 09:54:24;;;;;;;9.13;2.22;;;;;;;11.64;64.21;98812.06;5095284;28;20085;-75
2020/12/28 09:56:49;;;;;;;9.68;2.78;;;;;;;11.64;64.46;98828.78;5095364;28;20095;-75
2020/12/28 09:59:15;;;;;;;15.77;3.55;;;;;;;11.65;63.71;98812.84;5113399;28;20031;-75
2020/12/28 10:01:45;;;;;;;10.55;2.97;;;;;;;11.65;63.08;98824.78;5095474;28;20473;-73
2020/12/28 10:04:12;;;;;;;14.32;2.30;;;;;;;11.69;63.54;98808.06;5095477;28;20034;-74
2020/12/28 10:06:37;;;;;;;5.55;1.80;;;;;;;11.55;63.35;98787.41;5095430;28;20027;-74
2020/12/28 10:09:12;;;;;;;11.43;2.20;;;;;;;11.74;62.61;98816.00;5095675;28;20035;-74
2020/12/28 10:11:38;;;;;;;12.23;3.28;;;;;;;11.78;61.65;98822.38;5095717;28;20058;-74
2020/12/28 10:14:07;;;;;;;5.70;2.33;;;;;;;11.85;60.85;98800.06;5095606;28;20037;-74
2020/12/28 10:16:35;;;;;;;6.32;1.80;;;;;;;11.91;61.39;98798.44;5095798;28;20023;-74
2020/12/28 10:19:01;;;;;;;8.85;1.98;;;;;;;12.20;60.42;98781.59;5095304;28;20126;-74
2020/12/28 10:21:27;;;;;;;4.90;1.70;;;;;;;12.19;59.96;98780.75;5095498;28;20032;-74
2020/12/28 10:23:54;;;;;;;5.15;1.67;;;;;;;12.27;59.27;98767.59;5095548;28;20028;-74
2020/12/28 10:26:24;;;;;;;16.00;3.88;;;;;;;12.51;57.77;98752.66;5095517;28;20093;-74
2020/12/28 10:28:51;;;;;;;11.77;5.20;;;;;;;12.69;58.07;98760.91;5095310;28;20039;-74
2020/12/28 10:31:18;;;;;;;11.07;2.92;;;;;;;12.62;57.01;98757.34;5115516;28;20020;-74
2020/12/28 10:33:45;;;;;;;11.23;4.00;;;;;;;12.53;56.83;98760.63;5099079;28;20204;-74
2020/12/28 10:36:28;;;;;;;11.90;2.90;;;;;;;12.35;58.00;98744.00;5117450;28;20027;-74
2020/12/28 10:38:57;;;;;;;6.68;2.65;;;;;;;12.48;57.54;98747.91;5099185;28;20447;-75
2020/12/28 10:41:27;;;;;;;9.45;2.42;;;;;;;12.23;57.67;98702.69;5082281;28;20032;-75
2020/12/28 10:43:52;;;;;;;9.02;2.65;;;;;;;12.27;58.40;98725.75;5099080;28;20142;-74
2020/12/28 10:46:21;;;;;;;8.20;2.83;;;;;;;12.29;59.06;98732.50;5115490;28;20513;-74
2020/12/28 10:48:48;;;;;;;2.95;1.52;;;;;;;12.06;58.15;98710.75;5115784;28;20471;-74
2020/12/28 10:51:14;;;;;;;5.25;1.80;;;;;;;12.17;58.46;98716.25;5098412;28;20023;-74
2020/12/28 10:53:39;;;;;;;6.40;1.42;;;;;;;12.21;58.15;98722.63;5116327;28;20166;-73
2020/12/28 10:56:21;;;;;;;7.80;1.92;;;;;;;12.11;57.54;98694.81;5116449;28;20020;-77
2020/12/28 10:58:46;;;;;;;4.90;2.30;;;;;;;12.28;56.96;98716.19;5113850;28;20036;-76
2020/12/28 11:01:12;;;;;;;3.85;1.40;;;;;;;12.27;55.55;98698.66;5098571;28;20032;-75
2020/12/28 11:03:37;;;;;;;5.70;2.42;;;;;;;12.25;54.87;98670.41;5098493;28;20445;-74
2020/12/28 11:06:03;;;;;;;4.65;1.88;;;;;;;12.35;53.43;98674.28;5098237;28;20123;-74
2020/12/28 11:08:29;;;;;;;2.70;1.60;;;;;;;12.28;53.60;98683.50;5098161;28;20030;-74
2020/12/28 11:10:55;;;;;;;6.72;1.60;;;;;;;12.34;54.24;98669.91;5098391;28;20431;-74
2020/12/28 11:13:23;;;;;;;9.95;2.38;;;;;;;12.27;54.02;98653.25;5097804;28;20028;-74
2020/12/28 11:15:48;;;;;;;3.80;1.88;;;;;;;12.32;53.90;98655.59;5098036;28;20020;-74
2020/12/28 11:18:14;;;;;;;6.68;2.17;;;;;;;12.31;53.70;98640.06;5098057;28;20031;-75
2020/12/28 11:20:39;;;;;;;7.00;2.20;;;;;;;12.36;52.89;98638.81;5114993;28;20024;-74
2020/12/28 11:23:05;;;;;;;8.32;1.75;;;;;;;12.38;52.23;98619.69;5115122;28;20038;-74
2020/12/28 11:25:32;;;;;;;1.85;1.67;;;;;;;12.39;52.80;98619.28;5097960;28;20385;-74
2020/12/28 11:27:58;;;;;;;4.25;1.55;;;;;;;12.44;53.13;98618.81;5115870;28;20046;-75
2020/12/28 11:30:24;;;;;;;9.35;3.00;;;;;;;12.37;54.97;98602.16;5097842;28;20476;-75
2020/12/28 11:32:49;;;;;;;4.28;1.90;;;;;;;12.27;56.00;98603.06;5116626;28;20085;-75
2020/12/28 11:35:15;;;;;;;4.38;1.95;;;;;;;12.25;54.56;98597.09;5114637;28;20489;-77